createdAt,value
2018-07-02T01:31:43.755Z,0.00
2018-07-02T01:31:44.330Z,0.00
2018-07-02T01:31:44.927Z,0.00
2018-07-02T01:31:45.527Z,0.00
2018-07-02T01:31:46.126Z,0.00
2018-07-02T01:31:46.726Z,0.00
2018-07-02T01:31:47.327Z,0.00
2018-07-02T01:31:47.925Z,0.00
2018-07-02T01:32:41.408Z,0.00
2018-07-02T01:32:41.980Z,0.00
2018-07-02T01:32:42.581Z,0.00
2018-07-02T01:32:43.176Z,0.00
2018-07-02T01:32:43.777Z,0.00
2018-07-02T01:32:44.376Z,0.00
2018-07-02T01:32:44.978Z,0.00
2018-07-02T01:32:45.576Z,0.00
2018-07-02T01:33:39.058Z,0.00
2018-07-02T01:33:39.632Z,0.00
2018-07-02T01:33:40.233Z,0.00
2018-07-02T01:33:40.832Z,0.00
2018-07-02T01:33:41.432Z,0.00
2018-07-02T01:33:42.032Z,0.00
2018-07-02T01:33:42.631Z,0.00
2018-07-02T01:33:43.231Z,0.00
2018-07-02T01:34:36.711Z,0.00
2018-07-02T01:34:37.286Z,0.00
2018-07-02T01:34:37.883Z,0.00
2018-07-02T01:34:38.484Z,0.00
2018-07-02T01:34:39.083Z,0.00
2018-07-02T01:34:39.685Z,0.00
2018-07-02T01:34:40.283Z,0.00
2018-07-02T01:34:40.883Z,0.00
2018-07-02T01:35:34.364Z,0.00
2018-07-02T01:35:34.936Z,0.00
2018-07-02T01:35:35.545Z,0.00
2018-07-02T01:35:36.135Z,0.00
2018-07-02T01:35:36.742Z,0.00
2018-07-02T01:35:37.336Z,0.00
2018-07-02T01:35:37.937Z,0.00
2018-07-02T01:35:38.536Z,0.00
2018-07-02T01:36:32.020Z,0.00
2018-07-02T01:36:32.588Z,0.00
2018-07-02T01:36:33.188Z,0.00
2018-07-02T01:36:33.789Z,0.00
2018-07-02T01:36:34.388Z,0.00
2018-07-02T01:36:34.988Z,0.00
2018-07-02T01:36:35.589Z,0.00
2018-07-02T01:36:36.188Z,0.00
2018-07-02T01:37:29.670Z,0.00
2018-07-02T01:37:30.240Z,0.00
2018-07-02T01:37:30.840Z,0.00
2018-07-02T01:37:31.441Z,0.00
2018-07-02T01:37:32.040Z,0.00
2018-07-02T01:37:32.640Z,0.00
2018-07-02T01:37:33.240Z,0.00
2018-07-02T01:37:33.841Z,0.00
2018-07-02T01:38:28.343Z,0.00
2018-07-02T01:38:28.915Z,0.00
2018-07-02T01:38:29.514Z,0.00
2018-07-02T01:38:30.119Z,0.00
2018-07-02T01:38:30.716Z,0.00
2018-07-02T01:38:31.315Z,0.00
2018-07-02T01:38:31.914Z,0.00
2018-07-02T01:38:32.514Z,0.00
2018-07-02T01:39:27.024Z,0.00
2018-07-02T01:39:27.591Z,0.00
2018-07-02T01:39:28.191Z,0.00
2018-07-02T01:39:28.792Z,0.00
2018-07-02T01:39:29.391Z,0.00
2018-07-02T01:39:29.991Z,0.00
2018-07-02T01:39:30.604Z,0.00
2018-07-02T01:39:31.205Z,0.00
2018-07-02T01:40:24.676Z,0.00
2018-07-02T01:40:25.244Z,0.00
2018-07-02T01:40:25.845Z,0.00
2018-07-02T01:40:26.443Z,0.00
2018-07-02T01:40:27.043Z,0.00
2018-07-02T01:40:27.644Z,0.00
2018-07-02T01:40:28.242Z,0.00
2018-07-02T01:40:28.843Z,0.00
2018-07-02T01:41:22.325Z,0.00
2018-07-02T01:41:22.896Z,0.00
2018-07-02T01:41:23.495Z,0.00
2018-07-02T01:41:24.096Z,0.00
2018-07-02T01:41:24.696Z,0.00
2018-07-02T01:41:25.296Z,0.00
2018-07-02T01:41:25.895Z,0.00
2018-07-02T01:41:26.496Z,0.00
2018-07-02T01:42:19.976Z,0.00
2018-07-02T01:42:20.548Z,0.00
2018-07-02T01:42:21.147Z,0.00
2018-07-02T01:42:21.748Z,0.00
2018-07-02T01:42:22.347Z,0.00
2018-07-02T01:42:22.947Z,0.00
2018-07-02T01:42:23.547Z,0.00
2018-07-02T01:42:24.148Z,0.00
2018-07-02T01:43:17.629Z,0.00
2018-07-02T01:43:18.206Z,0.00
2018-07-02T01:43:18.799Z,0.00
2018-07-02T01:43:19.400Z,0.00
2018-07-02T01:43:19.998Z,0.00
2018-07-02T01:43:20.598Z,0.00
2018-07-02T01:43:21.199Z,0.00
2018-07-02T01:43:21.800Z,0.00
2018-07-02T01:44:16.303Z,0.00
2018-07-02T01:44:16.875Z,0.00
2018-07-02T01:44:17.477Z,0.00
2018-07-02T01:44:18.074Z,0.00
2018-07-02T01:44:18.675Z,0.00
2018-07-02T01:44:19.275Z,0.00
2018-07-02T01:44:19.874Z,0.00
2018-07-02T01:44:20.476Z,0.00
2018-07-02T01:45:14.045Z,0.00
2018-07-02T01:45:14.547Z,0.00
2018-07-02T01:45:15.149Z,0.00
2018-07-02T01:45:15.747Z,0.00
2018-07-02T01:45:16.347Z,0.00
2018-07-02T01:45:16.947Z,0.00
2018-07-02T01:45:17.548Z,0.00
2018-07-02T01:45:18.147Z,0.00
2018-07-02T01:46:11.711Z,0.00
2018-07-02T01:46:12.283Z,0.00
2018-07-02T01:46:12.882Z,0.00
2018-07-02T01:46:13.482Z,0.00
2018-07-02T01:46:14.081Z,0.00
2018-07-02T01:46:14.682Z,0.00
2018-07-02T01:46:15.281Z,0.00
2018-07-02T01:46:15.883Z,0.00
2018-07-02T01:47:09.364Z,0.00
2018-07-02T01:47:09.933Z,0.00
2018-07-02T01:47:10.533Z,0.00
2018-07-02T01:47:11.132Z,0.00
2018-07-02T01:47:11.733Z,0.00
2018-07-02T01:47:12.332Z,0.00
2018-07-02T01:47:12.932Z,0.00
2018-07-02T01:47:13.533Z,0.00
2018-07-02T01:48:07.013Z,0.00
2018-07-02T01:48:07.586Z,0.00
2018-07-02T01:48:08.185Z,0.00
2018-07-02T01:48:08.784Z,0.00
2018-07-02T01:48:09.387Z,0.00
2018-07-02T01:48:09.984Z,0.00
2018-07-02T01:48:10.585Z,0.00
2018-07-02T01:48:11.184Z,0.00
2018-07-02T01:49:04.678Z,0.00
2018-07-02T01:49:05.236Z,0.00
2018-07-02T01:49:05.835Z,0.00
2018-07-02T01:49:06.436Z,0.00
2018-07-02T01:49:07.036Z,0.00
2018-07-02T01:49:07.635Z,0.00
2018-07-02T01:49:08.236Z,0.00
2018-07-02T01:49:08.836Z,0.00
2018-07-02T01:50:03.339Z,0.00
2018-07-02T01:50:03.913Z,0.00
2018-07-02T01:50:04.513Z,0.00
2018-07-02T01:50:05.112Z,0.00
2018-07-02T01:50:05.712Z,0.00
2018-07-02T01:50:06.312Z,0.00
2018-07-02T01:50:06.911Z,0.00
2018-07-02T01:50:07.511Z,0.00
2018-07-02T01:51:00.993Z,0.00
2018-07-02T01:51:01.565Z,0.00
2018-07-02T01:51:02.164Z,0.00
2018-07-02T01:51:02.770Z,0.00
2018-07-02T01:51:03.366Z,0.00
2018-07-02T01:51:03.966Z,0.00
2018-07-02T01:51:04.566Z,0.00
2018-07-02T01:51:05.164Z,0.00
2018-07-02T01:51:59.667Z,0.00
2018-07-02T01:52:00.240Z,0.00
2018-07-02T01:52:00.840Z,0.00
2018-07-02T01:52:01.442Z,0.00
2018-07-02T01:52:02.039Z,0.00
2018-07-02T01:52:02.637Z,0.00
2018-07-02T01:52:03.239Z,0.00
2018-07-02T01:52:03.837Z,0.00
2018-07-02T01:52:58.343Z,0.00
2018-07-02T01:52:58.916Z,0.00
2018-07-02T01:52:59.515Z,0.00
2018-07-02T01:53:00.116Z,0.00
2018-07-02T01:53:00.716Z,0.00
2018-07-02T01:53:01.315Z,0.00
2018-07-02T01:53:01.914Z,0.00
2018-07-02T01:53:02.516Z,0.00
2018-07-02T01:53:57.020Z,0.00
2018-07-02T01:53:57.591Z,0.00
2018-07-02T01:53:58.192Z,0.00
2018-07-02T01:53:58.791Z,0.00
2018-07-02T01:53:59.390Z,0.00
2018-07-02T01:53:59.991Z,0.00
2018-07-02T01:54:00.598Z,0.00
2018-07-02T01:54:01.191Z,0.00
2018-07-02T01:54:55.695Z,0.00
2018-07-02T01:54:56.267Z,0.00
2018-07-02T01:54:56.865Z,0.00
2018-07-02T01:54:57.467Z,0.00
2018-07-02T01:54:58.069Z,0.00
2018-07-02T01:54:58.666Z,0.00
2018-07-02T01:54:59.268Z,0.00
2018-07-02T01:54:59.867Z,0.00
2018-07-02T01:55:53.347Z,0.00
2018-07-02T01:55:53.919Z,0.00
2018-07-02T01:55:54.520Z,0.00
2018-07-02T01:55:55.122Z,0.00
2018-07-02T01:55:55.722Z,0.00
2018-07-02T01:55:56.320Z,0.00
2018-07-02T01:55:56.917Z,0.00
2018-07-02T01:55:57.518Z,0.00
2018-07-02T01:56:50.998Z,0.00
2018-07-02T01:56:51.571Z,0.00
2018-07-02T01:56:52.171Z,0.00
2018-07-02T01:56:52.771Z,0.00
2018-07-02T01:56:53.370Z,0.00
2018-07-02T01:56:53.972Z,0.00
2018-07-02T01:56:54.570Z,0.00
2018-07-02T01:56:55.169Z,0.00
2018-07-02T01:57:49.674Z,0.00
2018-07-02T01:57:50.246Z,0.00
2018-07-02T01:57:50.846Z,0.00
2018-07-02T01:57:51.445Z,0.00
2018-07-02T01:57:52.047Z,0.00
2018-07-02T01:57:52.645Z,0.00
2018-07-02T01:57:53.245Z,0.00
2018-07-02T01:57:53.846Z,0.00
2018-07-02T01:58:48.350Z,0.00
2018-07-02T01:58:48.923Z,0.00
2018-07-02T01:58:49.522Z,0.00
2018-07-02T01:58:50.123Z,0.00
2018-07-02T01:58:50.723Z,0.00
2018-07-02T01:58:51.321Z,0.00
2018-07-02T01:58:51.921Z,0.00
2018-07-02T01:58:52.520Z,0.00
2018-07-02T01:59:47.026Z,0.00
2018-07-02T01:59:47.602Z,0.00
2018-07-02T01:59:48.197Z,0.00
2018-07-02T01:59:48.798Z,0.00
2018-07-02T01:59:49.398Z,0.00
2018-07-02T01:59:49.996Z,0.00
2018-07-02T01:59:50.597Z,0.00
2018-07-02T01:59:51.197Z,0.00
2018-07-02T02:00:44.678Z,0.00
2018-07-02T02:00:45.250Z,0.00
2018-07-02T02:00:45.850Z,0.00
2018-07-02T02:00:46.452Z,0.00
2018-07-02T02:00:47.049Z,0.00
2018-07-02T02:00:47.650Z,0.00
2018-07-02T02:00:48.251Z,0.00
2018-07-02T02:00:48.850Z,0.00
2018-07-02T02:01:42.329Z,0.00
2018-07-02T02:01:42.901Z,0.00
2018-07-02T02:01:43.502Z,0.00
2018-07-02T02:01:44.103Z,0.00
2018-07-02T02:01:44.701Z,0.00
2018-07-02T02:01:45.301Z,0.00
2018-07-02T02:01:45.904Z,0.00
2018-07-02T02:01:46.501Z,0.00
2018-07-02T02:02:41.003Z,0.00
2018-07-02T02:02:41.578Z,0.00
2018-07-02T02:02:42.177Z,0.00
2018-07-02T02:02:42.777Z,0.00
2018-07-02T02:02:43.377Z,0.00
2018-07-02T02:02:43.977Z,0.00
2018-07-02T02:02:44.576Z,0.00
2018-07-02T02:02:45.180Z,0.00
2018-07-02T02:03:38.658Z,0.00
2018-07-02T02:03:39.229Z,0.00
2018-07-02T02:03:39.829Z,0.00
2018-07-02T02:03:40.431Z,0.00
2018-07-02T02:03:41.028Z,0.00
2018-07-02T02:03:41.629Z,0.00
2018-07-02T02:03:42.230Z,0.00
2018-07-02T02:03:42.828Z,0.00
2018-07-02T02:04:36.308Z,0.00
2018-07-02T02:04:36.884Z,0.00
2018-07-02T02:04:37.483Z,0.00
2018-07-02T02:04:38.082Z,0.00
2018-07-02T02:04:38.680Z,0.00
2018-07-02T02:04:39.281Z,0.00
2018-07-02T02:04:39.880Z,0.00
2018-07-02T02:04:40.480Z,0.00
2018-07-02T02:05:33.959Z,4.00
2018-07-02T02:05:34.533Z,4.00
2018-07-02T02:05:35.134Z,4.00
2018-07-02T02:05:35.733Z,4.00
2018-07-02T02:05:36.332Z,4.00
2018-07-02T02:05:36.933Z,4.00
2018-07-02T02:05:37.531Z,4.00
2018-07-02T02:05:38.134Z,4.00
2018-07-02T02:06:32.635Z,4.00
2018-07-02T02:06:33.208Z,4.00
2018-07-02T02:06:33.807Z,4.00
2018-07-02T02:06:34.408Z,4.00
2018-07-02T02:06:35.007Z,4.00
2018-07-02T02:06:35.607Z,4.00
2018-07-02T02:06:36.207Z,4.00
2018-07-02T02:06:36.807Z,4.00
2018-07-02T02:07:31.312Z,4.00
2018-07-02T02:07:31.882Z,4.00
2018-07-02T02:07:32.484Z,0.00
2018-07-02T02:07:33.082Z,4.00
2018-07-02T02:07:33.684Z,4.00
2018-07-02T02:07:34.283Z,0.00
2018-07-02T02:07:34.886Z,4.00
2018-07-02T02:07:35.481Z,0.00
2018-07-02T02:08:28.963Z,0.00
2018-07-02T02:08:29.536Z,0.00
2018-07-02T02:08:30.135Z,0.00
2018-07-02T02:08:30.738Z,0.00
2018-07-02T02:08:31.335Z,0.00
2018-07-02T02:08:31.935Z,0.00
2018-07-02T02:08:32.536Z,0.00
2018-07-02T02:08:33.136Z,0.00
2018-07-02T02:09:27.639Z,0.00
2018-07-02T02:09:28.211Z,0.00
2018-07-02T02:09:28.812Z,0.00
2018-07-02T02:09:29.411Z,0.00
2018-07-02T02:09:30.012Z,0.00
2018-07-02T02:09:30.611Z,0.00
2018-07-02T02:09:31.212Z,0.00
2018-07-02T02:09:31.811Z,0.00
2018-07-02T02:10:25.291Z,0.00
2018-07-02T02:10:25.864Z,4.00
2018-07-02T02:10:26.463Z,0.00
2018-07-02T02:10:27.063Z,4.00
2018-07-02T02:10:27.663Z,0.00
2018-07-02T02:10:28.263Z,0.00
2018-07-02T02:10:28.863Z,4.00
2018-07-02T02:10:29.463Z,0.00
2018-07-02T02:11:23.966Z,4.00
2018-07-02T02:11:24.539Z,4.00
2018-07-02T02:11:25.138Z,4.00
2018-07-02T02:11:25.739Z,4.00
2018-07-02T02:11:26.339Z,4.00
2018-07-02T02:11:26.941Z,4.00
2018-07-02T02:11:27.539Z,4.00
2018-07-02T02:11:28.138Z,4.00
2018-07-02T02:12:22.643Z,4.00
2018-07-02T02:12:23.216Z,4.00
2018-07-02T02:12:23.815Z,4.00
2018-07-02T02:12:24.414Z,4.00
2018-07-02T02:12:25.014Z,4.00
2018-07-02T02:12:25.616Z,4.00
2018-07-02T02:12:26.213Z,4.00
2018-07-02T02:12:26.813Z,4.00
2018-07-02T02:13:20.296Z,0.00
2018-07-02T02:13:20.867Z,0.00
2018-07-02T02:13:21.466Z,0.00
2018-07-02T02:13:22.067Z,0.00
2018-07-02T02:13:22.668Z,0.00
2018-07-02T02:13:23.266Z,0.00
2018-07-02T02:13:23.866Z,0.00
2018-07-02T02:13:24.466Z,0.00
2018-07-02T02:14:18.970Z,4.00
2018-07-02T02:14:19.543Z,4.00
2018-07-02T02:14:20.142Z,4.00
2018-07-02T02:14:20.742Z,4.00
2018-07-02T02:14:21.342Z,4.00
2018-07-02T02:14:21.942Z,4.00
2018-07-02T02:14:22.542Z,4.00
2018-07-02T02:14:23.141Z,4.00
2018-07-02T02:15:16.621Z,4.00
2018-07-02T02:15:17.195Z,4.00
2018-07-02T02:15:17.800Z,4.00
2018-07-02T02:15:18.395Z,4.00
2018-07-02T02:15:18.994Z,4.00
2018-07-02T02:15:19.594Z,4.00
2018-07-02T02:15:20.193Z,4.00
2018-07-02T02:15:20.794Z,4.00
2018-07-02T02:16:15.297Z,4.00
2018-07-02T02:16:15.868Z,4.00
2018-07-02T02:16:16.468Z,4.00
2018-07-02T02:16:17.071Z,4.00
2018-07-02T02:16:17.669Z,4.00
2018-07-02T02:16:18.268Z,4.00
2018-07-02T02:16:18.875Z,4.00
2018-07-02T02:16:19.469Z,4.00
2018-07-02T02:17:13.973Z,4.00
2018-07-02T02:17:14.546Z,4.00
2018-07-02T02:17:15.145Z,4.00
2018-07-02T02:17:15.744Z,4.00
2018-07-02T02:17:16.345Z,4.00
2018-07-02T02:17:16.945Z,4.00
2018-07-02T02:17:17.544Z,4.00
2018-07-02T02:17:18.145Z,4.00
2018-07-02T02:18:11.624Z,4.00
2018-07-02T02:18:12.197Z,4.00
2018-07-02T02:18:12.801Z,4.00
2018-07-02T02:18:13.399Z,4.00
2018-07-02T02:18:13.998Z,4.00
2018-07-02T02:18:14.597Z,4.00
2018-07-02T02:18:15.201Z,4.00
2018-07-02T02:18:15.797Z,4.00
2018-07-02T02:19:10.301Z,4.00
2018-07-02T02:19:10.872Z,4.00
2018-07-02T02:19:11.474Z,4.00
2018-07-02T02:19:12.074Z,4.00
2018-07-02T02:19:12.672Z,4.00
2018-07-02T02:19:13.272Z,4.00
2018-07-02T02:19:13.873Z,4.00
2018-07-02T02:19:14.473Z,4.00
2018-07-02T02:20:08.979Z,8.00
2018-07-02T02:20:09.550Z,8.00
2018-07-02T02:20:10.149Z,8.00
2018-07-02T02:20:10.748Z,8.00
2018-07-02T02:20:11.349Z,8.00
2018-07-02T02:20:11.948Z,8.00
2018-07-02T02:20:12.548Z,8.00
2018-07-02T02:20:13.148Z,8.00
2018-07-02T02:21:06.628Z,8.00
2018-07-02T02:21:07.200Z,8.00
2018-07-02T02:21:07.800Z,8.00
2018-07-02T02:21:08.401Z,8.00
2018-07-02T02:21:09.001Z,8.00
2018-07-02T02:21:09.600Z,8.00
2018-07-02T02:21:10.200Z,8.00
2018-07-02T02:21:10.800Z,8.00
2018-07-02T02:22:05.304Z,8.00
2018-07-02T02:22:05.875Z,8.00
2018-07-02T02:22:06.475Z,8.00
2018-07-02T02:22:07.075Z,8.00
2018-07-02T02:22:07.674Z,8.00
2018-07-02T02:22:08.279Z,8.00
2018-07-02T02:22:08.875Z,8.00
2018-07-02T02:22:09.474Z,8.00
2018-07-02T02:23:02.956Z,8.00
2018-07-02T02:23:03.529Z,8.00
2018-07-02T02:23:04.127Z,8.00
2018-07-02T02:23:04.729Z,8.00
2018-07-02T02:23:05.328Z,8.00
2018-07-02T02:23:05.929Z,8.00
2018-07-02T02:23:06.527Z,8.00
2018-07-02T02:23:07.127Z,8.00
2018-07-02T02:24:01.633Z,8.00
2018-07-02T02:24:02.203Z,8.00
2018-07-02T02:24:02.803Z,8.00
2018-07-02T02:24:03.403Z,8.00
2018-07-02T02:24:04.002Z,8.00
2018-07-02T02:24:04.602Z,8.00
2018-07-02T02:24:05.208Z,8.00
2018-07-02T02:24:05.802Z,8.00
2018-07-02T02:24:59.284Z,8.00
2018-07-02T02:24:59.855Z,8.00
2018-07-02T02:25:00.456Z,8.00
2018-07-02T02:25:01.055Z,8.00
2018-07-02T02:25:01.655Z,8.00
2018-07-02T02:25:02.256Z,8.00
2018-07-02T02:25:02.856Z,8.00
2018-07-02T02:25:03.457Z,8.00
2018-07-02T02:25:56.934Z,12.00
2018-07-02T02:25:57.508Z,12.00
2018-07-02T02:25:58.107Z,12.00
2018-07-02T02:25:58.712Z,12.00
2018-07-02T02:25:59.308Z,12.00
2018-07-02T02:25:59.907Z,12.00
2018-07-02T02:26:00.507Z,12.00
2018-07-02T02:26:01.108Z,12.00
2018-07-02T02:26:54.586Z,12.00
2018-07-02T02:26:55.158Z,12.00
2018-07-02T02:26:55.759Z,12.00
2018-07-02T02:26:56.359Z,12.00
2018-07-02T02:26:56.958Z,12.00
2018-07-02T02:26:57.558Z,12.00
2018-07-02T02:26:58.157Z,12.00
2018-07-02T02:26:58.758Z,12.00
2018-07-02T02:27:52.240Z,12.00
2018-07-02T02:27:52.810Z,16.00
2018-07-02T02:27:53.413Z,16.00
2018-07-02T02:27:54.011Z,16.00
2018-07-02T02:27:54.610Z,16.00
2018-07-02T02:27:55.210Z,16.00
2018-07-02T02:27:55.810Z,16.00
2018-07-02T02:27:56.410Z,16.00
2018-07-02T02:28:49.892Z,16.00
2018-07-02T02:28:50.467Z,16.00
2018-07-02T02:28:51.062Z,16.00
2018-07-02T02:28:51.663Z,16.00
2018-07-02T02:28:52.262Z,16.00
2018-07-02T02:28:52.862Z,16.00
2018-07-02T02:28:53.462Z,16.00
2018-07-02T02:28:54.061Z,16.00
2018-07-02T02:29:47.541Z,16.00
2018-07-02T02:29:48.114Z,16.00
2018-07-02T02:29:48.715Z,16.00
2018-07-02T02:29:49.315Z,16.00
2018-07-02T02:29:49.915Z,16.00
2018-07-02T02:29:50.513Z,16.00
2018-07-02T02:29:51.113Z,16.00
2018-07-02T02:29:51.713Z,16.00
2018-07-02T02:30:46.218Z,20.00
2018-07-02T02:30:46.794Z,16.00
2018-07-02T02:30:47.391Z,16.00
2018-07-02T02:30:47.989Z,16.00
2018-07-02T02:30:48.588Z,16.00
2018-07-02T02:30:49.192Z,16.00
2018-07-02T02:30:49.789Z,16.00
2018-07-02T02:30:50.387Z,16.00
2018-07-02T02:31:44.893Z,20.00
2018-07-02T02:31:45.467Z,20.00
2018-07-02T02:31:46.063Z,20.00
2018-07-02T02:31:46.666Z,20.00
2018-07-02T02:31:47.263Z,20.00
2018-07-02T02:31:47.864Z,20.00
2018-07-02T02:31:48.463Z,20.00
2018-07-02T02:31:49.063Z,20.00
2018-07-02T02:32:43.571Z,20.00
2018-07-02T02:32:44.143Z,20.00
2018-07-02T02:32:44.744Z,20.00
2018-07-02T02:32:45.339Z,20.00
2018-07-02T02:32:45.939Z,24.00
2018-07-02T02:32:46.539Z,20.00
2018-07-02T02:32:47.140Z,24.00
2018-07-02T02:32:47.739Z,24.00
2018-07-02T02:33:41.220Z,24.00
2018-07-02T02:33:41.795Z,24.00
2018-07-02T02:33:42.393Z,24.00
2018-07-02T02:33:42.999Z,24.00
2018-07-02T02:33:43.592Z,24.00
2018-07-02T02:33:44.194Z,24.00
2018-07-02T02:33:44.792Z,24.00
2018-07-02T02:33:45.392Z,28.00
2018-07-02T02:34:38.873Z,28.00
2018-07-02T02:34:39.446Z,24.00
2018-07-02T02:34:40.045Z,24.00
2018-07-02T02:34:40.648Z,24.00
2018-07-02T02:34:41.245Z,32.00
2018-07-02T02:34:41.844Z,28.00
2018-07-02T02:34:42.445Z,28.00
2018-07-02T02:34:43.045Z,28.00
2018-07-02T02:35:36.524Z,32.00
2018-07-02T02:35:37.096Z,32.00
2018-07-02T02:35:37.702Z,32.00
2018-07-02T02:35:38.299Z,32.00
2018-07-02T02:35:38.897Z,32.00
2018-07-02T02:35:39.496Z,32.00
2018-07-02T02:35:40.095Z,32.00
2018-07-02T02:35:40.696Z,32.00
2018-07-02T02:36:34.176Z,32.00
2018-07-02T02:36:34.750Z,32.00
2018-07-02T02:36:35.350Z,32.00
2018-07-02T02:36:35.955Z,32.00
2018-07-02T02:36:36.548Z,32.00
2018-07-02T02:36:37.148Z,32.00
2018-07-02T02:36:37.753Z,32.00
2018-07-02T02:36:38.348Z,32.00
2018-07-02T02:37:31.828Z,36.00
2018-07-02T02:37:32.400Z,36.00
2018-07-02T02:37:33.000Z,36.00
2018-07-02T02:37:33.604Z,36.00
2018-07-02T02:37:34.199Z,36.00
2018-07-02T02:37:34.800Z,36.00
2018-07-02T02:37:35.404Z,36.00
2018-07-02T02:37:35.998Z,36.00
2018-07-02T02:38:30.503Z,40.00
2018-07-02T02:38:31.076Z,40.00
2018-07-02T02:38:31.674Z,40.00
2018-07-02T02:38:32.274Z,40.00
2018-07-02T02:38:32.874Z,40.00
2018-07-02T02:38:33.475Z,40.00
2018-07-02T02:38:34.075Z,40.00
2018-07-02T02:38:34.674Z,40.00
2018-07-02T02:39:28.155Z,44.00
2018-07-02T02:39:28.727Z,44.00
2018-07-02T02:39:29.331Z,44.00
2018-07-02T02:39:29.929Z,44.00
2018-07-02T02:39:30.544Z,44.00
2018-07-02T02:39:31.128Z,48.00
2018-07-02T02:39:31.727Z,48.00
2018-07-02T02:39:32.327Z,48.00
2018-07-02T02:40:25.806Z,52.00
2018-07-02T02:40:26.380Z,48.00
2018-07-02T02:40:26.979Z,52.00
2018-07-02T02:40:27.579Z,48.00
2018-07-02T02:40:28.181Z,48.00
2018-07-02T02:40:28.778Z,48.00
2018-07-02T02:40:29.377Z,48.00
2018-07-02T02:40:29.990Z,48.00
2018-07-02T02:41:23.457Z,56.00
2018-07-02T02:41:24.034Z,56.00
2018-07-02T02:41:24.630Z,56.00
2018-07-02T02:41:25.230Z,56.00
2018-07-02T02:41:25.834Z,56.00
2018-07-02T02:41:26.431Z,56.00
2018-07-02T02:41:27.035Z,56.00
2018-07-02T02:41:27.634Z,56.00
2018-07-02T02:42:21.111Z,60.00
2018-07-02T02:42:21.681Z,60.00
2018-07-02T02:42:22.280Z,60.00
2018-07-02T02:42:22.884Z,60.00
2018-07-02T02:42:23.481Z,60.00
2018-07-02T02:42:24.083Z,60.00
2018-07-02T02:42:24.683Z,60.00
2018-07-02T02:42:25.283Z,60.00
2018-07-02T02:43:19.785Z,68.00
2018-07-02T02:43:20.357Z,68.00
2018-07-02T02:43:20.956Z,68.00
2018-07-02T02:43:21.557Z,68.00
2018-07-02T02:43:22.156Z,68.00
2018-07-02T02:43:22.758Z,68.00
2018-07-02T02:43:23.356Z,68.00
2018-07-02T02:43:23.963Z,68.00
2018-07-02T02:44:17.437Z,68.00
2018-07-02T02:44:18.009Z,68.00
2018-07-02T02:44:18.610Z,68.00
2018-07-02T02:44:19.211Z,72.00
2018-07-02T02:44:19.809Z,72.00
2018-07-02T02:44:20.409Z,72.00
2018-07-02T02:44:21.009Z,72.00
2018-07-02T02:44:21.612Z,72.00
2018-07-02T02:45:16.113Z,80.00
2018-07-02T02:45:16.684Z,80.00
2018-07-02T02:45:17.283Z,80.00
2018-07-02T02:45:17.887Z,80.00
2018-07-02T02:45:18.483Z,80.00
2018-07-02T02:45:19.085Z,80.00
2018-07-02T02:45:19.685Z,80.00
2018-07-02T02:45:20.286Z,76.00
2018-07-02T02:46:13.764Z,84.00
2018-07-02T02:46:14.339Z,84.00
2018-07-02T02:46:14.936Z,84.00
2018-07-02T02:46:15.540Z,84.00
2018-07-02T02:46:16.138Z,84.00
2018-07-02T02:46:16.737Z,84.00
2018-07-02T02:46:17.337Z,88.00
2018-07-02T02:46:17.935Z,88.00
2018-07-02T02:47:11.415Z,92.00
2018-07-02T02:47:11.990Z,92.00
2018-07-02T02:47:12.595Z,92.00
2018-07-02T02:47:13.191Z,92.00
2018-07-02T02:47:13.790Z,92.00
2018-07-02T02:47:14.389Z,92.00
2018-07-02T02:47:14.989Z,92.00
2018-07-02T02:47:15.589Z,92.00
2018-07-02T02:48:09.068Z,100.00
2018-07-02T02:48:09.641Z,100.00
2018-07-02T02:48:10.241Z,100.00
2018-07-02T02:48:10.843Z,100.00
2018-07-02T02:48:11.441Z,100.00
2018-07-02T02:48:12.041Z,100.00
2018-07-02T02:48:12.640Z,100.00
2018-07-02T02:48:13.240Z,100.00
2018-07-02T02:49:07.743Z,108.00
2018-07-02T02:49:08.315Z,108.00
2018-07-02T02:49:08.915Z,108.00
2018-07-02T02:49:09.521Z,108.00
2018-07-02T02:49:10.116Z,108.00
2018-07-02T02:49:10.715Z,108.00
2018-07-02T02:49:11.315Z,108.00
2018-07-02T02:49:11.913Z,108.00
2018-07-02T02:50:05.397Z,116.00
2018-07-02T02:50:05.968Z,116.00
2018-07-02T02:50:06.568Z,116.00
2018-07-02T02:50:07.172Z,116.00
2018-07-02T02:50:07.767Z,116.00
2018-07-02T02:50:08.367Z,116.00
2018-07-02T02:50:08.966Z,116.00
2018-07-02T02:50:09.565Z,116.00
2018-07-02T02:51:03.046Z,128.00
2018-07-02T02:51:03.620Z,124.00
2018-07-02T02:51:04.226Z,124.00
2018-07-02T02:51:04.821Z,124.00
2018-07-02T02:51:05.467Z,124.00
2018-07-02T02:51:06.019Z,128.00
2018-07-02T02:51:06.621Z,128.00
2018-07-02T02:51:07.244Z,128.00
2018-07-02T02:52:00.700Z,136.00
2018-07-02T02:52:01.272Z,136.00
2018-07-02T02:52:01.873Z,136.00
2018-07-02T02:52:02.472Z,136.00
2018-07-02T02:52:03.072Z,136.00
2018-07-02T02:52:03.671Z,136.00
2018-07-02T02:52:04.272Z,136.00
2018-07-02T02:52:04.870Z,136.00
2018-07-02T02:52:59.374Z,148.00
2018-07-02T02:52:59.947Z,148.00
2018-07-02T02:53:00.546Z,144.00
2018-07-02T02:53:01.146Z,144.00
2018-07-02T02:53:01.747Z,148.00
2018-07-02T02:53:02.345Z,148.00
2018-07-02T02:53:02.947Z,148.00
2018-07-02T02:53:03.546Z,148.00
2018-07-02T02:53:58.056Z,160.00
2018-07-02T02:53:58.622Z,160.00
2018-07-02T02:53:59.222Z,160.00
2018-07-02T02:53:59.820Z,156.00
2018-07-02T02:54:00.418Z,156.00
2018-07-02T02:54:01.022Z,156.00
2018-07-02T02:54:01.620Z,160.00
2018-07-02T02:54:02.225Z,160.00
2018-07-02T02:54:56.726Z,168.00
2018-07-02T02:54:57.304Z,168.00
2018-07-02T02:54:57.897Z,168.00
2018-07-02T02:54:58.499Z,168.00
2018-07-02T02:54:59.097Z,172.00
2018-07-02T02:54:59.698Z,172.00
2018-07-02T02:55:00.297Z,172.00
2018-07-02T02:55:00.897Z,172.00
2018-07-02T02:55:54.378Z,184.00
2018-07-02T02:55:54.954Z,184.00
2018-07-02T02:55:55.549Z,184.00
2018-07-02T02:55:56.151Z,184.00
2018-07-02T02:55:56.749Z,180.00
2018-07-02T02:55:57.350Z,184.00
2018-07-02T02:55:57.950Z,180.00
2018-07-02T02:55:58.551Z,180.00
2018-07-02T02:56:53.053Z,196.00
2018-07-02T02:56:53.626Z,196.00
2018-07-02T02:56:54.226Z,196.00
2018-07-02T02:56:54.825Z,196.00
2018-07-02T02:56:55.425Z,196.00
2018-07-02T02:56:56.026Z,196.00
2018-07-02T02:56:56.626Z,200.00
2018-07-02T02:56:57.226Z,200.00
2018-07-02T02:57:50.705Z,208.00
2018-07-02T02:57:51.279Z,208.00
2018-07-02T02:57:51.878Z,208.00
2018-07-02T02:57:52.478Z,208.00
2018-07-02T02:57:53.078Z,208.00
2018-07-02T02:57:53.679Z,212.00
2018-07-02T02:57:54.276Z,212.00
2018-07-02T02:57:54.876Z,208.00
2018-07-02T02:58:48.357Z,224.00
2018-07-02T02:58:48.929Z,224.00
2018-07-02T02:58:49.528Z,224.00
2018-07-02T02:58:50.128Z,224.00
2018-07-02T02:58:50.732Z,224.00
2018-07-02T02:58:51.331Z,224.00
2018-07-02T02:58:51.928Z,224.00
2018-07-02T02:58:52.527Z,224.00
2018-07-02T02:59:47.036Z,236.00
2018-07-02T02:59:47.606Z,236.00
2018-07-02T02:59:48.204Z,236.00
2018-07-02T02:59:48.803Z,240.00
2018-07-02T02:59:49.409Z,240.00
2018-07-02T02:59:50.004Z,240.00
2018-07-02T02:59:50.604Z,240.00
2018-07-02T02:59:51.203Z,240.00
2018-07-02T03:00:45.708Z,256.00
2018-07-02T03:00:46.280Z,256.00
2018-07-02T03:00:46.879Z,256.00
2018-07-02T03:00:47.479Z,256.00
2018-07-02T03:00:48.078Z,252.00
2018-07-02T03:00:48.679Z,252.00
2018-07-02T03:00:49.279Z,252.00
2018-07-02T03:00:49.879Z,256.00
2018-07-02T03:01:43.362Z,272.00
2018-07-02T03:01:43.933Z,272.00
2018-07-02T03:01:44.532Z,272.00
2018-07-02T03:01:45.133Z,272.00
2018-07-02T03:01:45.732Z,272.00
2018-07-02T03:01:46.333Z,268.00
2018-07-02T03:01:46.932Z,268.00
2018-07-02T03:01:47.531Z,272.00
2018-07-02T03:02:42.035Z,288.00
2018-07-02T03:02:42.608Z,288.00
2018-07-02T03:02:43.209Z,288.00
2018-07-02T03:02:43.809Z,288.00
2018-07-02T03:02:44.407Z,288.00
2018-07-02T03:02:45.008Z,292.00
2018-07-02T03:02:45.606Z,288.00
2018-07-02T03:02:46.206Z,288.00
2018-07-02T03:03:40.710Z,308.00
2018-07-02T03:03:41.285Z,308.00
2018-07-02T03:03:41.884Z,308.00
2018-07-02T03:03:42.483Z,308.00
2018-07-02T03:03:43.083Z,304.00
2018-07-02T03:03:43.681Z,304.00
2018-07-02T03:03:44.286Z,308.00
2018-07-02T03:03:44.882Z,308.00
2018-07-02T03:04:38.363Z,328.00
2018-07-02T03:04:38.935Z,324.00
2018-07-02T03:04:39.537Z,324.00
2018-07-02T03:04:40.136Z,324.00
2018-07-02T03:04:40.734Z,324.00
2018-07-02T03:04:41.335Z,324.00
2018-07-02T03:04:41.935Z,328.00
2018-07-02T03:04:42.535Z,328.00
2018-07-02T03:05:37.039Z,344.00
2018-07-02T03:05:37.610Z,344.00
2018-07-02T03:05:38.209Z,344.00
2018-07-02T03:05:38.810Z,344.00
2018-07-02T03:05:39.409Z,348.00
2018-07-02T03:05:40.013Z,348.00
2018-07-02T03:05:40.625Z,348.00